Time;durP1;ratioP1;P1;durP2;ratioP2;P2;SDS_P1;SDS_P2;PMS_P1;PMS_P2;Temp;Humidity;BMP_temperature;BMP_pressure;BME280_temperature;BME280_humidity;BME280_pressure;Samples;Min_cycle;Max_cycle;Signal;HPM_P1;HPM_P2
2021/11/21 00:00:16;;;;;;;;;;;;;;;21.26;33.39;95596.03;1028186;28;2030;-54
2021/11/21 00:00:46;;;;;;;;;;;;;;;21.25;33.21;95586.56;1027575;28;850;-55
2021/11/21 00:01:17;;;;;;;;;;;;;;;21.25;33.19;95592.63;1023648;29;1463;-54
2021/11/21 00:01:47;;;;;;;;;;;;;;;21.26;33.46;95590.78;1024198;28;801;-52
2021/11/21 00:02:18;;;;;;;;;;;;;;;21.26;33.30;95588.13;1027822;28;1090;-51
2021/11/21 00:02:48;;;;;;;;;;;;;;;21.25;33.17;95589.97;1026758;28;1907;-52
2021/11/21 00:03:18;;;;;;;;;;;;;;;21.25;33.34;95589.97;1032778;28;991;-51
2021/11/21 00:03:49;;;;;;;;;;;;;;;21.27;33.11;95589.72;1032505;28;821;-55
2021/11/21 00:04:19;;;;;;;;;;;;;;;21.27;33.53;95595.00;1032116;28;863;-54
2021/11/21 00:04:50;;;;;;;;;;;;;;;21.25;33.37;95587.34;1031768;28;856;-54
2021/11/21 00:05:20;;;;;;;;;;;;;;;21.25;33.16;95586.56;1032270;28;1355;-54
2021/11/21 00:05:51;;;;;;;;;;;;;;;21.26;33.58;95588.94;1028270;28;1523;-53
2021/11/21 00:06:21;;;;;;;;;;;;;;;21.26;33.50;95588.13;1027521;28;777;-54
2021/11/21 00:06:51;;;;;;;;;;;;;;;21.26;33.30;95588.13;1024021;28;884;-55
2021/11/21 00:07:22;;;;;;;;;;;;;;;21.27;33.49;95589.72;1023830;28;754;-51
2021/11/21 00:07:52;;;;;;;;;;;;;;;21.25;33.49;95583.91;1032416;28;746;-52
2021/11/21 00:08:22;;;;;;;;;;;;;;;21.25;33.17;95582.06;1032832;28;832;-54
2021/11/21 00:08:53;;;;;;;;;;;;;;;21.25;33.19;95581.28;1031959;28;808;-55
2021/11/21 00:09:23;;;;;;;;;;;;;;;21.24;33.50;95588.44;1032420;28;805;-55
2021/11/21 00:09:54;;;;;;;;;;;;;;;21.25;33.12;95583.91;1032485;28;792;-50
2021/11/21 00:10:24;;;;;;;;;;;;;;;21.25;33.36;95581.28;1032408;28;955;-55
2021/11/21 00:10:56;;;;;;;;;;;;;;;21.25;32.97;95583.91;1027434;28;971;-54
2021/11/21 00:11:27;;;;;;;;;;;;;;;21.25;33.36;95584.72;1028284;28;984;-52
2021/11/21 00:11:57;;;;;;;;;;;;;;;21.25;33.13;95587.34;1028239;28;805;-54
2021/11/21 00:12:28;;;;;;;;;;;;;;;21.25;33.33;95586.56;1028009;28;1051;-53
2021/11/21 00:12:58;;;;;;;;;;;;;;;21.24;33.28;95585.78;1032203;28;999;-51
2021/11/21 00:13:28;;;;;;;;;;;;;;;21.26;33.82;95585.50;1032500;28;828;-55
2021/11/21 00:14:02;;;;;;;;;;;;;;;21.25;33.15;95581.28;1032809;28;883;-52
2021/11/21 00:14:33;;;;;;;;;;;;;;;21.25;33.37;95586.56;1031837;28;781;-53
2021/11/21 00:15:03;;;;;;;;;;;;;;;21.26;33.33;95577.59;1032226;28;1336;-53
2021/11/21 00:15:34;;;;;;;;;;;;;;;21.26;33.21;95575.75;1032051;28;1051;-54
2021/11/21 00:16:06;;;;;;;;;;;;;;;21.26;33.21;95577.59;1031988;28;867;-52
2021/11/21 00:16:36;;;;;;;;;;;;;;;21.26;33.29;95577.59;1032761;28;992;-54
2021/11/21 00:17:07;;;;;;;;;;;;;;;21.26;33.02;95580.22;1032362;28;1030;-54
2021/11/21 00:17:37;;;;;;;;;;;;;;;21.27;33.32;95579.19;1031234;28;784;-49
2021/11/21 00:18:08;;;;;;;;;;;;;;;21.25;32.98;95573.38;1027842;28;1127;-53
2021/11/21 00:18:39;;;;;;;;;;;;;;;21.25;33.30;95579.44;1028108;28;813;-55
2021/11/21 00:19:09;;;;;;;;;;;;;;;21.25;33.29;95576.00;1028549;28;1054;-55
2021/11/21 00:19:41;;;;;;;;;;;;;;;21.25;33.16;95581.28;1028123;28;948;-54
2021/11/21 00:20:16;;;;;;;;;;;;;;;21.26;33.47;95581.03;1032431;28;852;-52
2021/11/21 00:20:47;;;;;;;;;;;;;;;21.25;33.14;95571.53;1032505;28;1078;-55
2021/11/21 00:21:17;;;;;;;;;;;;;;;21.25;33.44;95570.72;1031766;28;975;-54
2021/11/21 00:21:47;;;;;;;;;;;;;;;21.25;33.27;95570.72;1032485;28;948;-57
2021/11/21 00:22:18;;;;;;;;;;;;;;;21.26;33.48;95567.03;1032213;28;879;-54
2021/11/21 00:22:49;;;;;;;;;;;;;;;21.26;33.50;95572.31;1032127;28;1902;-54
2021/11/21 00:23:21;;;;;;;;;;;;;;;21.26;33.55;95575.75;1032274;28;1349;-53
2021/11/21 00:23:51;;;;;;;;;;;;;;;21.25;33.29;95568.88;1032558;28;820;-53
2021/11/21 00:24:22;;;;;;;;;;;;;;;21.26;33.41;95567.03;1027796;28;1350;-54
2021/11/21 00:24:52;;;;;;;;;;;;;;;21.25;33.42;95570.72;1028171;28;851;-53
2021/11/21 00:25:22;;;;;;;;;;;;;;;21.26;33.25;95567.03;1027900;28;1273;-54
2021/11/21 00:25:53;;;;;;;;;;;;;;;21.26;33.15;95564.41;1023672;28;1564;-55
2021/11/21 00:26:23;;;;;;;;;;;;;;;21.26;33.12;95561.78;1027364;28;824;-52
2021/11/21 00:26:53;;;;;;;;;;;;;;;21.26;33.27;95565.19;1028470;28;849;-55
2021/11/21 00:27:24;;;;;;;;;;;;;;;21.25;33.11;95560.97;1028178;28;809;-53
2021/11/21 00:27:54;;;;;;;;;;;;;;;21.26;33.28;95570.47;1031548;28;967;-55
2021/11/21 00:28:24;;;;;;;;;;;;;;;21.25;33.23;95566.25;1032397;28;1073;-55
2021/11/21 00:28:55;;;;;;;;;;;;;;;21.25;33.25;95560.97;1032478;28;1000;-53
2021/11/21 00:29:25;;;;;;;;;;;;;;;21.27;33.35;95566.00;1028157;28;1079;-52
2021/11/21 00:29:55;;;;;;;;;;;;;;;21.25;33.06;95560.19;1027801;28;789;-54
2021/11/21 00:30:26;;;;;;;;;;;;;;;21.25;33.44;95549.66;1027985;28;1067;-53
2021/11/21 00:30:56;;;;;;;;;;;;;;;21.25;33.57;95554.91;1027217;28;798;-51
2021/11/21 00:31:26;;;;;;;;;;;;;;;21.25;33.29;95562.81;1032359;28;1038;-54
2021/11/21 00:31:57;;;;;;;;;;;;;;;21.25;33.02;95560.97;1032104;28;865;-55
2021/11/21 00:32:27;;;;;;;;;;;;;;;21.25;33.41;95555.72;1032236;28;968;-53
2021/11/21 00:32:57;;;;;;;;;;;;;;;21.25;33.28;95557.56;1031453;28;1086;-55
2021/11/21 00:33:28;;;;;;;;;;;;;;;21.24;33.29;95554.16;1032378;28;939;-52
2021/11/21 00:33:58;;;;;;;;;;;;;;;21.24;33.11;95559.44;1032139;28;1015;-52
2021/11/21 00:34:29;;;;;;;;;;;;;;;21.25;32.99;95557.56;1031780;28;975;-53
2021/11/21 00:34:59;;;;;;;;;;;;;;;21.24;33.28;95556.78;1032483;28;1392;-54
2021/11/21 00:35:29;;;;;;;;;;;;;;;21.24;33.30;95553.38;1032374;28;1039;-51
2021/11/21 00:36:00;;;;;;;;;;;;;;;21.25;33.15;95560.97;1031520;28;761;-53
2021/11/21 00:36:30;;;;;;;;;;;;;;;21.25;33.17;95554.91;1024125;29;1571;-52
2021/11/21 00:37:00;;;;;;;;;;;;;;;21.25;33.16;95557.56;1024219;29;904;-53
2021/11/21 00:37:31;;;;;;;;;;;;;;;21.25;33.47;95552.28;1024246;29;829;-52
2021/11/21 00:38:01;;;;;;;;;;;;;;;21.24;33.08;95556.78;1023627;29;808;-54
2021/11/21 00:38:32;;;;;;;;;;;;;;;21.25;33.15;95557.56;1032006;28;841;-54
2021/11/21 00:39:02;;;;;;;;;;;;;;;21.24;33.43;95553.38;1032501;28;812;-54
2021/11/21 00:39:33;;;;;;;;;;;;;;;21.25;33.11;95553.06;1032294;28;813;-54
2021/11/21 00:40:04;;;;;;;;;;;;;;;21.24;33.08;95550.72;1032299;28;1043;-55
2021/11/21 00:40:34;;;;;;;;;;;;;;;21.24;33.26;95548.09;1032190;28;829;-53
2021/11/21 00:41:04;;;;;;;;;;;;;;;21.23;32.85;95552.56;1031708;28;884;-55
2021/11/21 00:41:35;;;;;;;;;;;;;;;21.24;32.88;95548.09;1032305;28;1054;-55
2021/11/21 00:42:05;;;;;;;;;;;;;;;21.24;33.02;95548.09;1032118;28;808;-54
2021/11/21 00:42:35;;;;;;;;;;;;;;;21.24;33.33;95543.63;1031865;28;1898;-54
2021/11/21 00:43:06;;;;;;;;;;;;;;;21.24;33.20;95542.81;1027990;28;1160;-55
2021/11/21 00:43:36;;;;;;;;;;;;;;;21.24;32.93;95542.81;1027599;28;1151;-53
2021/11/21 00:44:07;;;;;;;;;;;;;;;21.24;33.16;95538.34;1027885;28;1221;-54
2021/11/21 00:44:37;;;;;;;;;;;;;;;21.23;33.16;95541.22;1027353;28;777;-55
2021/11/21 00:45:08;;;;;;;;;;;;;;;21.24;33.28;95534.91;1032386;28;1170;-55
2021/11/21 00:45:38;;;;;;;;;;;;;;;21.24;33.70;95543.63;1032334;28;1011;-53
2021/11/21 00:46:08;;;;;;;;;;;;;;;21.23;33.13;95536.75;1032050;28;624;-52
2021/11/21 00:46:39;;;;;;;;;;;;;;;21.25;33.49;95539.09;1031980;28;1023;-54
2021/11/21 00:47:09;;;;;;;;;;;;;;;21.24;33.44;95533.06;1032415;28;1070;-55
2021/11/21 00:47:41;;;;;;;;;;;;;;;21.23;33.16;95534.13;1031623;28;1027;-55
2021/11/21 00:48:11;;;;;;;;;;;;;;;21.24;33.54;95532.28;1032099;28;1039;-55
2021/11/21 00:48:42;;;;;;;;;;;;;;;21.24;33.11;95538.34;1032279;28;749;-53
2021/11/21 00:49:15;;;;;;;;;;;;;;;21.25;33.41;95533.81;1032274;28;849;-53
2021/11/21 00:49:45;;;;;;;;;;;;;;;21.24;33.31;95527.00;1032283;28;813;-55
2021/11/21 00:50:22;;;;;;;;;;;;;;;21.24;32.99;95527.00;1032562;28;757;-55
2021/11/21 00:50:54;;;;;;;;;;;;;;;21.25;33.40;95523.28;1032169;28;804;-54
2021/11/21 00:51:26;;;;;;;;;;;;;;;21.24;33.17;95529.63;1031690;28;857;-55
2021/11/21 00:51:57;;;;;;;;;;;;;;;21.24;33.54;95524.38;1032358;28;1015;-54
2021/11/21 00:52:28;;;;;;;;;;;;;;;21.24;33.22;95527.00;1031998;28;1007;-52
2021/11/21 00:53:02;;;;;;;;;;;;;;;21.22;33.34;95524.66;1032084;28;1429;-53
2021/11/21 00:53:32;;;;;;;;;;;;;;;21.23;33.49;95517.50;1032483;28;822;-54
2021/11/21 00:54:06;;;;;;;;;;;;;;;21.23;33.17;95520.16;1032266;28;859;-53
2021/11/21 00:54:49;;;;;;;;;;;;;;;21.23;33.31;95518.31;1031208;28;800;-53
2021/11/21 00:55:31;;;;;;;;;;;;;;;21.24;33.07;95516.47;1032307;28;1353;-55
2021/11/21 00:56:04;;;;;;;;;;;;;;;21.23;33.44;95514.88;1032215;28;754;-52
2021/11/21 00:56:35;;;;;;;;;;;;;;;21.21;33.25;95512.53;1031908;28;587;-54
2021/11/21 00:57:05;;;;;;;;;;;;;;;21.22;33.18;95508.03;1032291;28;1027;-51
2021/11/21 00:57:36;;;;;;;;;;;;;;;21.23;33.14;95512.25;1032170;28;1019;-54
2021/11/21 00:58:09;;;;;;;;;;;;;;;21.23;33.38;95518.31;1032310;28;804;-53
2021/11/21 00:58:39;;;;;;;;;;;;;;;21.23;33.01;95509.59;1027971;28;976;-55
2021/11/21 00:59:09;;;;;;;;;;;;;;;21.22;33.32;95514.13;1027712;28;1035;-55
2021/11/21 00:59:40;;;;;;;;;;;;;;;21.21;33.17;95507.25;1024032;29;1513;-51
2021/11/21 01:00:11;;;;;;;;;;;;;;;21.21;33.27;95509.91;1019512;29;1345;-55
2021/11/21 01:00:42;;;;;;;;;;;;;;;21.22;32.92;95508.84;1024096;29;833;-54
2021/11/21 01:01:13;;;;;;;;;;;;;;;21.22;33.35;95508.03;1019173;29;1350;-54
2021/11/21 01:01:43;;;;;;;;;;;;;;;21.23;33.00;95504.34;1024306;28;802;-53
2021/11/21 01:02:14;;;;;;;;;;;;;;;21.24;33.28;95511.19;1027703;28;782;-53
2021/11/21 01:02:44;;;;;;;;;;;;;;;21.23;33.35;95505.13;1027047;28;2009;-51
2021/11/21 01:03:15;;;;;;;;;;;;;;;21.23;32.80;95504.34;1027932;28;780;-55
2021/11/21 01:03:46;;;;;;;;;;;;;;;21.23;33.13;95507.75;1027856;28;864;-55
2021/11/21 01:04:16;;;;;;;;;;;;;;;21.22;33.34;95500.94;1023642;29;1070;-55
2021/11/21 01:04:46;;;;;;;;;;;;;;;21.22;33.32;95502.78;1023734;28;1783;-51
2021/11/21 01:05:17;;;;;;;;;;;;;;;21.23;33.44;95504.34;1027681;28;1276;-54
2021/11/21 01:05:47;;;;;;;;;;;;;;;21.23;33.02;95504.34;1028025;28;960;-53
2021/11/21 01:06:18;;;;;;;;;;;;;;;21.23;33.34;95504.34;1031462;28;770;-52
2021/11/21 01:06:48;;;;;;;;;;;;;;;21.22;33.16;95506.22;1032528;28;750;-52
2021/11/21 01:07:21;;;;;;;;;;;;;;;21.23;33.36;95504.34;1032200;28;1034;-52
2021/11/21 01:07:52;;;;;;;;;;;;;;;21.22;33.37;95502.78;1032064;28;641;-55
2021/11/21 01:08:22;;;;;;;;;;;;;;;21.22;33.37;95500.13;1032486;28;847;-55
2021/11/21 01:08:52;;;;;;;;;;;;;;;21.22;33.16;95505.41;1032207;28;877;-53
2021/11/21 01:09:24;;;;;;;;;;;;;;;21.23;33.23;95506.97;1032172;28;730;-50
2021/11/21 01:09:54;;;;;;;;;;;;;;;21.23;32.88;95504.34;1031874;28;844;-54
2021/11/21 01:10:25;;;;;;;;;;;;;;;21.21;33.11;95496.72;1032161;28;967;-55
2021/11/21 01:10:56;;;;;;;;;;;;;;;21.22;33.04;95495.66;1032318;28;1071;-53
2021/11/21 01:11:26;;;;;;;;;;;;;;;21.22;33.27;95500.13;1031463;28;833;-55
2021/11/21 01:11:57;;;;;;;;;;;;;;;21.21;33.24;95501.19;1031778;28;1014;-49
2021/11/21 01:12:27;;;;;;;;;;;;;;;21.22;33.32;95498.28;1032163;28;789;-54
2021/11/21 01:12:57;;;;;;;;;;;;;;;21.23;32.95;95493.78;1032014;28;1054;-55
2021/11/21 01:13:28;;;;;;;;;;;;;;;21.23;33.29;95488.50;1032252;28;1007;-52
2021/11/21 01:13:58;;;;;;;;;;;;;;;21.22;33.01;95494.88;1027929;28;995;-55
2021/11/21 01:14:29;;;;;;;;;;;;;;;21.22;33.08;95493.03;1027447;28;932;-55
2021/11/21 01:14:59;;;;;;;;;;;;;;;21.22;32.87;95490.38;1023937;29;1252;-55
2021/11/21 01:15:29;;;;;;;;;;;;;;;21.23;32.92;95493.78;1023900;28;850;-55
2021/11/21 01:16:00;;;;;;;;;;;;;;;21.22;33.04;95495.66;1028235;28;847;-51
2021/11/21 01:16:30;;;;;;;;;;;;;;;21.23;33.00;95488.50;1027151;28;777;-51
2021/11/21 01:17:01;;;;;;;;;;;;;;;21.22;32.75;95487.75;1032244;28;1090;-50
2021/11/21 01:17:31;;;;;;;;;;;;;;;21.23;33.16;95496.41;1032173;28;871;-53
2021/11/21 01:18:02;;;;;;;;;;;;;;;21.23;33.00;95491.16;1031158;28;833;-49
2021/11/21 01:18:34;;;;;;;;;;;;;;;21.22;33.08;95486.97;1032257;28;805;-52
2021/11/21 01:19:04;;;;;;;;;;;;;;;21.21;32.75;95486.16;1032445;28;829;-54
2021/11/21 01:19:34;;;;;;;;;;;;;;;21.22;33.34;95492.22;1032819;28;785;-50
2021/11/21 01:20:05;;;;;;;;;;;;;;;21.23;33.08;95488.50;1033006;28;987;-52
2021/11/21 01:20:36;;;;;;;;;;;;;;;21.22;33.04;95482.47;1033137;28;805;-51
2021/11/21 01:21:06;;;;;;;;;;;;;;;21.22;33.10;95490.38;1032370;28;793;-50
2021/11/21 01:21:37;;;;;;;;;;;;;;;21.22;33.51;95486.97;1028337;28;1277;-48
2021/11/21 01:22:07;;;;;;;;;;;;;;;21.22;32.91;95493.03;1028333;28;801;-53
2021/11/21 01:22:37;;;;;;;;;;;;;;;21.22;33.23;95490.38;1028523;28;1910;-49
2021/11/21 01:23:09;;;;;;;;;;;;;;;21.22;33.10;95492.22;1028679;28;967;-51
2021/11/21 01:23:40;;;;;;;;;;;;;;;21.23;33.39;95491.16;1032290;28;911;-51
2021/11/21 01:24:10;;;;;;;;;;;;;;;21.22;33.09;95487.75;1031700;28;789;-50
2021/11/21 01:24:40;;;;;;;;;;;;;;;21.23;33.31;95493.78;1032506;28;793;-53
2021/11/21 01:25:11;;;;;;;;;;;;;;;21.23;33.16;95489.31;1029635;28;1229;-48
2021/11/21 01:25:42;;;;;;;;;;;;;;;21.23;33.29;95488.50;1030824;28;793;-53
2021/11/21 01:26:12;;;;;;;;;;;;;;;21.23;33.02;95483.25;1032811;28;838;-54
2021/11/21 01:26:43;;;;;;;;;;;;;;;21.22;33.09;95490.38;1033046;28;835;-50
2021/11/21 01:27:14;;;;;;;;;;;;;;;21.23;33.22;95483.25;1033076;28;864;-50
2021/11/21 01:27:44;;;;;;;;;;;;;;;21.22;32.96;95484.31;1028199;28;1404;-53
2021/11/21 01:28:14;;;;;;;;;;;;;;;21.22;33.03;95481.69;1028883;28;820;-54
2021/11/21 01:28:45;;;;;;;;;;;;;;;21.22;33.07;95479.06;1028870;28;1047;-55
2021/11/21 01:29:15;;;;;;;;;;;;;;;21.23;33.20;95477.97;1028427;28;812;-55
2021/11/21 01:29:45;;;;;;;;;;;;;;;21.22;32.70;95485.13;1032810;28;991;-54
2021/11/21 01:30:20;;;;;;;;;;;;;;;21.21;33.14;95470.34;1032797;28;955;-55
2021/11/21 01:30:50;;;;;;;;;;;;;;;21.21;32.93;95473.00;1033129;28;863;-55
2021/11/21 01:31:21;;;;;;;;;;;;;;;21.21;33.24;95475.63;1032973;28;986;-54
2021/11/21 01:31:51;;;;;;;;;;;;;;;21.22;32.75;95479.06;1032871;28;986;-55
2021/11/21 01:32:22;;;;;;;;;;;;;;;21.22;33.30;95474.56;1032649;28;724;-52
2021/11/21 01:32:52;;;;;;;;;;;;;;;21.21;33.11;95467.72;1032116;28;797;-54
2021/11/21 01:33:23;;;;;;;;;;;;;;;21.22;33.08;95466.66;1033147;28;789;-55
2021/11/21 01:33:53;;;;;;;;;;;;;;;21.22;33.02;95468.50;1032918;28;863;-55
2021/11/21 01:34:23;;;;;;;;;;;;;;;21.23;33.15;95472.69;1032088;28;833;-54
2021/11/21 01:34:54;;;;;;;;;;;;;;;21.22;32.83;95468.50;1032590;28;791;-54
2021/11/21 01:35:24;;;;;;;;;;;;;;;21.22;32.98;95465.88;1033157;28;795;-55
2021/11/21 01:35:55;;;;;;;;;;;;;;;21.22;33.15;95476.41;1028131;28;1512;-53
2021/11/21 01:36:25;;;;;;;;;;;;;;;21.22;33.64;95465.88;1028318;28;1046;-53
2021/11/21 01:36:56;;;;;;;;;;;;;;;21.22;33.25;95473.78;1028726;28;809;-54
2021/11/21 01:37:26;;;;;;;;;;;;;;;21.22;33.49;95469.31;1028677;28;1023;-55
2021/11/21 01:37:57;;;;;;;;;;;;;;;21.22;33.04;95473.78;1032654;28;1014;-54
2021/11/21 01:38:27;;;;;;;;;;;;;;;21.20;33.03;95460.91;1033080;28;779;-55
2021/11/21 01:38:57;;;;;;;;;;;;;;;21.21;32.66;95466.94;1033093;28;1077;-52
2021/11/21 01:39:28;;;;;;;;;;;;;;;21.22;33.10;95465.88;1032778;28;972;-53
2021/11/21 01:39:58;;;;;;;;;;;;;;;21.21;32.81;95466.94;1032757;28;995;-55
2021/11/21 01:40:28;;;;;;;;;;;;;;;21.22;32.75;95468.50;1032952;28;1023;-52
2021/11/21 01:40:59;;;;;;;;;;;;;;;21.21;32.88;95470.34;1032907;28;1030;-54
2021/11/21 01:41:29;;;;;;;;;;;;;;;21.21;33.22;95469.56;1033099;28;729;-55
2021/11/21 01:41:59;;;;;;;;;;;;;;;21.22;33.23;95464.03;1032803;28;955;-53
2021/11/21 01:42:30;;;;;;;;;;;;;;;21.22;33.36;95465.88;1028120;28;1903;-55
2021/11/21 01:43:00;;;;;;;;;;;;;;;21.22;33.25;95465.88;1028502;28;749;-52
2021/11/21 01:43:30;;;;;;;;;;;;;;;21.22;32.91;95463.22;1028626;28;873;-55
2021/11/21 01:44:01;;;;;;;;;;;;;;;21.22;32.89;95460.59;1028543;28;722;-52
2021/11/21 01:44:31;;;;;;;;;;;;;;;21.21;33.08;95467.72;1031552;28;697;-55
2021/11/21 01:45:01;;;;;;;;;;;;;;;21.21;32.83;95466.94;1032967;28;1221;-54
2021/11/21 01:45:32;;;;;;;;;;;;;;;21.22;33.24;95468.50;1033076;28;816;-52
2021/11/21 01:46:03;;;;;;;;;;;;;;;21.21;33.35;95461.66;1032704;28;1085;-55
2021/11/21 01:46:34;;;;;;;;;;;;;;;21.21;33.36;95466.94;1032458;28;837;-55
2021/11/21 01:47:05;;;;;;;;;;;;;;;21.21;33.15;95469.56;1033103;28;812;-55
2021/11/21 01:47:36;;;;;;;;;;;;;;;21.21;33.53;95466.94;1032486;28;813;-55
2021/11/21 01:48:06;;;;;;;;;;;;;;;21.22;33.04;95465.88;1032799;28;829;-53
2021/11/21 01:48:37;;;;;;;;;;;;;;;21.22;33.30;95464.03;1032787;28;832;-54
2021/11/21 01:49:07;;;;;;;;;;;;;;;21.22;33.09;95468.50;1033029;28;765;-54
2021/11/21 01:49:38;;;;;;;;;;;;;;;21.21;33.04;95461.66;1032659;28;959;-53
2021/11/21 01:50:09;;;;;;;;;;;;;;;21.21;33.00;95464.28;1032929;28;1059;-53
2021/11/21 01:50:40;;;;;;;;;;;;;;;21.21;33.11;95459.81;1028716;28;912;-55
2021/11/21 01:51:11;;;;;;;;;;;;;;;21.22;33.00;95457.97;1028666;28;754;-55
2021/11/21 01:51:42;;;;;;;;;;;;;;;21.21;32.89;95457.16;1032623;28;891;-52
2021/11/21 01:52:12;;;;;;;;;;;;;;;21.21;33.32;95453.75;1032560;28;872;-54
2021/11/21 01:52:42;;;;;;;;;;;;;;;21.21;33.20;95453.75;1031039;28;860;-54
2021/11/21 01:53:13;;;;;;;;;;;;;;;21.21;33.18;95453.75;1032299;28;829;-53
2021/11/21 01:53:43;;;;;;;;;;;;;;;21.21;33.52;95445.84;1032842;28;853;-53
2021/11/21 01:54:14;;;;;;;;;;;;;;;21.20;33.80;95449.56;1032812;28;847;-54
2021/11/21 01:54:44;;;;;;;;;;;;;;;21.22;32.92;95450.06;1032058;28;728;-55
2021/11/21 01:55:14;;;;;;;;;;;;;;;21.21;33.14;95444.00;1032416;28;1285;-54
2021/11/21 01:55:46;;;;;;;;;;;;;;;21.21;33.07;95440.56;1032822;28;1076;-51
2021/11/21 01:56:16;;;;;;;;;;;;;;;21.20;33.07;95439.81;1032268;28;840;-52
2021/11/21 01:56:47;;;;;;;;;;;;;;;21.21;32.71;95444.00;1028447;28;1086;-54
2021/11/21 01:57:17;;;;;;;;;;;;;;;21.21;33.00;95440.56;1024067;29;1004;-55
2021/11/21 01:57:48;;;;;;;;;;;;;;;21.20;33.36;95436.38;1022002;29;1020;-53
2021/11/21 01:58:18;;;;;;;;;;;;;;;21.21;33.14;95438.72;1023765;28;944;-52
2021/11/21 01:58:48;;;;;;;;;;;;;;;21.20;33.04;95431.09;1028487;28;1027;-55
2021/11/21 01:59:19;;;;;;;;;;;;;;;21.21;33.25;95435.28;1032382;28;1049;-54
2021/11/21 01:59:50;;;;;;;;;;;;;;;21.20;33.07;95431.91;1032643;28;864;-50
2021/11/21 02:00:21;;;;;;;;;;;;;;;21.21;33.07;95433.44;1031041;28;836;-55
2021/11/21 02:00:51;;;;;;;;;;;;;;;21.21;32.99;95427.38;1032809;28;836;-55
2021/11/21 02:01:22;;;;;;;;;;;;;;;21.21;33.10;95432.66;1032760;28;859;-55
2021/11/21 02:01:52;;;;;;;;;;;;;;;21.21;33.25;95435.28;1032982;28;930;-55
2021/11/21 02:02:23;;;;;;;;;;;;;;;21.21;33.27;95428.19;1032442;28;1061;-52
2021/11/21 02:02:53;;;;;;;;;;;;;;;21.20;33.05;95428.47;1027308;28;1955;-55
2021/11/21 02:03:23;;;;;;;;;;;;;;;21.20;32.78;95429.25;1028391;28;804;-54
2021/11/21 02:03:54;;;;;;;;;;;;;;;21.20;32.90;95431.09;1028447;28;857;-52
2021/11/21 02:04:24;;;;;;;;;;;;;;;21.20;33.42;95423.19;1027925;28;976;-54
2021/11/21 02:04:55;;;;;;;;;;;;;;;21.20;33.39;95421.34;1031926;28;1362;-52
2021/11/21 02:05:25;;;;;;;;;;;;;;;21.20;33.44;95426.63;1032949;28;1003;-55
2021/11/21 02:05:56;;;;;;;;;;;;;;;21.21;33.09;95427.38;1032625;28;797;-53
2021/11/21 02:06:26;;;;;;;;;;;;;;;21.21;33.43;95427.38;1028183;28;1392;-53
2021/11/21 02:06:56;;;;;;;;;;;;;;;21.22;33.17;95434.25;1028216;28;844;-54
2021/11/21 02:07:30;;;;;;;;;;;;;;;21.21;33.22;95430.03;1028519;28;797;-52
2021/11/21 02:08:03;;;;;;;;;;;;;;;21.22;33.58;95426.34;1029058;28;793;-55
2021/11/21 02:08:54;;;;;;;;;;;;;;;21.23;33.36;95427.88;1032574;28;951;-51
2021/11/21 02:09:26;;;;;;;;;;;;;;;21.22;33.43;95429.75;1032619;28;726;-55
2021/11/21 02:10:20;;;;;;;;;;;;;;;21.22;33.50;95426.34;1030401;28;1184;-55
2021/11/21 02:10:58;;;;;;;;;;;;;;;21.23;33.53;95430.53;1028514;28;2019;-52
2021/11/21 02:11:28;;;;;;;;;;;;;;;21.23;34.06;95423.41;1028308;28;820;-52
2021/11/21 02:11:59;;;;;;;;;;;;;;;21.23;33.77;95426.03;1028083;28;829;-53
2021/11/21 02:12:32;;;;;;;;;;;;;;;21.23;33.48;95426.03;1028150;28;1254;-52
2021/11/21 02:13:23;;;;;;;;;;;;;;;21.23;33.36;95425.25;1026132;28;1102;-51
2021/11/21 02:14:06;;;;;;;;;;;;;;;21.23;33.52;95426.03;1028898;28;912;-55
2021/11/21 02:14:37;;;;;;;;;;;;;;;21.23;34.04;95422.63;1027504;28;1149;-53
2021/11/21 02:15:11;;;;;;;;;;;;;;;21.23;33.48;95419.97;1024206;29;1263;-54
2021/11/21 02:16:01;;;;;;;;;;;;;;;21.23;33.28;95419.97;1024287;29;1071;-52
2021/11/21 02:16:51;;;;;;;;;;;;;;;21.22;32.77;95426.34;1029847;28;1136;-55
2021/11/21 02:17:28;;;;;;;;;;;;;;;21.21;33.18;95416.84;1032388;28;757;-51
2021/11/21 02:17:58;;;;;;;;;;;;;;;21.21;33.91;95425.53;1027765;28;1361;-53
2021/11/21 02:18:28;;;;;;;;;;;;;;;21.22;33.44;95418.41;1028597;28;898;-54
2021/11/21 02:18:59;;;;;;;;;;;;;;;21.21;33.08;95416.84;1028250;28;711;-51
2021/11/21 02:19:30;;;;;;;;;;;;;;;21.22;33.30;95413.16;1028372;28;880;-55
2021/11/21 02:20:44;;;;;;;;;;;;;;;21.21;33.03;95416.84;1030443;28;1103;-53
2021/11/21 02:21:15;;;;;;;;;;;;;;;21.21;33.31;95420.28;1022372;28;1470;-52
2021/11/21 02:21:46;;;;;;;;;;;;;;;21.21;33.09;95414.22;1028203;28;836;-55
2021/11/21 02:22:19;;;;;;;;;;;;;;;21.21;33.38;95412.38;1024082;29;1117;-52
2021/11/21 02:22:53;;;;;;;;;;;;;;;21.21;33.36;95416.84;1024173;29;1902;-52
2021/11/21 02:23:29;;;;;;;;;;;;;;;21.21;33.52;95416.84;1021983;29;1001;-54
2021/11/21 02:24:19;;;;;;;;;;;;;;;21.21;33.20;95411.56;1027956;28;1191;-54
2021/11/21 02:24:59;;;;;;;;;;;;;;;21.20;33.13;95407.38;1028137;28;1423;-52
2021/11/21 02:25:30;;;;;;;;;;;;;;;21.21;33.25;95408.94;1032308;28;853;-53
2021/11/21 02:26:00;;;;;;;;;;;;;;;21.20;33.60;95412.66;1032650;28;828;-53
2021/11/21 02:26:51;;;;;;;;;;;;;;;21.20;33.71;95413.44;1031284;28;1232;-53
2021/11/21 02:27:41;;;;;;;;;;;;;;;21.21;33.35;95414.22;1030230;28;1118;-50
2021/11/21 02:28:12;;;;;;;;;;;;;;;21.20;33.23;95413.44;1028057;28;1012;-52
2021/11/21 02:28:43;;;;;;;;;;;;;;;21.21;33.23;95406.31;1028567;28;827;-54
2021/11/21 02:29:14;;;;;;;;;;;;;;;21.20;33.23;95405.53;1028541;28;856;-50
2021/11/21 02:29:44;;;;;;;;;;;;;;;21.20;33.17;95410.81;1028122;28;859;-55
2021/11/21 02:30:35;;;;;;;;;;;;;;;21.21;33.20;95406.31;1032588;28;790;-52
2021/11/21 02:31:25;;;;;;;;;;;;;;;21.20;33.28;95405.53;1032622;28;826;-54
2021/11/21 02:32:15;;;;;;;;;;;;;;;21.20;33.26;95407.38;1032234;28;849;-53
2021/11/21 02:33:13;;;;;;;;;;;;;;;21.19;33.21;95403.16;1032241;28;770;-52
2021/11/21 02:34:04;;;;;;;;;;;;;;;21.19;33.26;95403.16;1032205;28;949;-53
2021/11/21 02:34:34;;;;;;;;;;;;;;;21.19;33.29;95400.53;1032173;28;840;-55
2021/11/21 02:35:05;;;;;;;;;;;;;;;21.19;33.29;95400.53;1032308;28;1284;-53
2021/11/21 02:35:36;;;;;;;;;;;;;;;21.19;33.59;95392.63;1032753;28;801;-52
2021/11/21 02:36:08;;;;;;;;;;;;;;;21.19;33.43;95398.69;1032284;28;793;-48
2021/11/21 02:36:45;;;;;;;;;;;;;;;21.19;33.28;95400.53;1028253;28;1367;-50
2021/11/21 02:37:26;;;;;;;;;;;;;;;21.19;33.18;95396.03;1028322;28;1112;-54
2021/11/21 02:37:56;;;;;;;;;;;;;;;21.20;33.25;95402.09;1028162;28;809;-52
2021/11/21 02:38:27;;;;;;;;;;;;;;;21.21;33.25;95403.66;1030397;28;1107;-50
2021/11/21 02:38:57;;;;;;;;;;;;;;;21.20;32.89;95399.47;1032552;28;768;-54
2021/11/21 02:39:29;;;;;;;;;;;;;;;21.19;33.30;95393.41;1032796;28;853;-55
2021/11/21 02:39:59;;;;;;;;;;;;;;;21.20;33.45;95399.47;1032250;28;987;-55
2021/11/21 02:40:29;;;;;;;;;;;;;;;21.19;33.30;95393.41;1032607;28;801;-49
2021/11/21 02:41:00;;;;;;;;;;;;;;;21.19;33.31;95395.25;1032770;28;729;-53
2021/11/21 02:41:30;;;;;;;;;;;;;;;21.20;33.04;95394.19;1028082;28;1484;-49
2021/11/21 02:42:01;;;;;;;;;;;;;;;21.19;32.96;95384.72;1028195;28;865;-52
2021/11/21 02:42:31;;;;;;;;;;;;;;;21.19;33.43;95387.34;1027927;28;812;-50
2021/11/21 02:43:02;;;;;;;;;;;;;;;21.19;33.03;95387.34;1028256;28;805;-49
2021/11/21 02:43:33;;;;;;;;;;;;;;;21.19;33.39;95382.88;1032645;28;860;-49
2021/11/21 02:44:03;;;;;;;;;;;;;;;21.19;33.00;95376.81;1032485;28;726;-50
2021/11/21 02:44:34;;;;;;;;;;;;;;;21.19;33.16;95371.53;1031749;28;781;-52
2021/11/21 02:45:05;;;;;;;;;;;;;;;21.19;33.24;95387.34;1032274;28;1189;-50
2021/11/21 02:45:35;;;;;;;;;;;;;;;21.19;33.59;95377.59;1032635;28;1074;-49
2021/11/21 02:46:05;;;;;;;;;;;;;;;21.19;32.96;95376.81;1032585;28;833;-48
2021/11/21 02:46:36;;;;;;;;;;;;;;;21.19;33.29;95379.44;1032547;28;952;-48
2021/11/21 02:47:07;;;;;;;;;;;;;;;21.19;33.17;95384.72;1031260;28;1338;-49
2021/11/21 02:47:37;;;;;;;;;;;;;;;21.19;33.18;95379.44;1027711;28;1418;-48
2021/11/21 02:48:07;;;;;;;;;;;;;;;21.19;33.24;95379.44;1028094;28;762;-48
2021/11/21 02:48:37;;;;;;;;;;;;;;;21.19;33.33;95376.81;1028219;28;597;-48
2021/11/21 02:49:08;;;;;;;;;;;;;;;21.18;33.00;95369.97;1028496;28;1015;-50
2021/11/21 02:49:38;;;;;;;;;;;;;;;21.18;33.43;95373.41;1028243;28;1028;-48